ADDS METAR Data INFO
IDs: Format: Raw Decoded Include TAF

Data at: 0507 UTC 23 May 2017

KCZT 230455Z AUTO 00000KT 10SM SCT075 23/21 A2990 RMK AO2
KCZT 230435Z AUTO 00000KT 10SM OVC075 23/21 A2990 RMK AO2
KCZT 230415Z AUTO 07003KT 10SM OVC075 23/21 A2990 RMK AO2
KCZT 230355Z AUTO 07003KT 10SM BKN060 OVC075 23/21 A2989 RMK AO2
KCZT 230335Z AUTO 07003KT 10SM BKN060 BKN075 24/21 A2989 RMK AO2
KCZT 230315Z AUTO 07004KT 10SM CLR 24/21 A2988 RMK AO2
KCZT 230255Z AUTO 09003KT 10SM SCT055 24/21 A2987 RMK AO2
KCZT 230235Z AUTO 00000KT 10SM SCT044 BKN055 25/21 A2986 RMK AO2
KCZT 230215Z AUTO 00000KT 10SM SCT042 BKN048 OVC055 25/21 A2985 RMK AO2
KCZT 230155Z AUTO 07003KT 10SM BKN042 OVC049 26/21 A2985 RMK AO2
KCZT 230135Z AUTO 08003KT 10SM SCT042 OVC049 26/21 A2984 RMK AO2
KCZT 230115Z AUTO 08004KT 10SM OVC045 26/21 A2984 RMK AO2
KCZT 230055Z AUTO 08004KT 10SM OVC041 26/20 A2984 RMK AO2
KCZT 230035Z AUTO 00000KT 10SM SCT041 SCT050 BKN070 27/21 A2984 RMK AO2
KCZT 230015Z AUTO 09004KT 10SM SCT041 BKN050 OVC070 27/21 A2984 RMK AO2
KCZT 222355Z AUTO 07005KT 10SM SCT032 BKN038 OVC050 27/21 A2984 RMK AO2
KCZT 222335Z AUTO 07005KT 10SM BKN033 OVC047 27/21 A2985 RMK AO2
KCZT 222315Z AUTO 06004KT 10SM SCT031 SCT040 OVC047 27/21 A2985 RMK AO2
KCZT 222255Z AUTO 08003KT 10SM SCT042 OVC050 27/21 A2985 RMK AO2
KCZT 222235Z AUTO 09004KT 10SM BKN046 OVC050 27/21 A2985 RMK AO2
KCZT 222215Z AUTO 06005KT 10SM SCT031 SCT046 OVC050 27/21 A2985 RMK AO2
KCZT 222155Z AUTO 08005KT 10SM SCT031 BKN039 OVC050 27/21 A2986 RMK AO2
KCZT 222135Z AUTO 08005KT 10SM SCT033 BKN039 OVC060 27/21 A2986 RMK AO2
KCZT 222115Z AUTO 07004KT 10SM SCT035 SCT050 OVC060 27/21 A2987 RMK AO2
KCZT 222055Z AUTO 06006KT 10SM SCT033 SCT040 OVC060 28/21 A2987 RMK AO2
KCZT 222035Z AUTO 05006KT 10SM BKN033 OVC040 27/20 A2988 RMK AO2
KCZT 222015Z AUTO 04005KT 10SM OVC033 27/21 A2988 RMK AO2
KCZT 221955Z AUTO 07003KT 10SM BKN031 OVC037 28/21 A2989 RMK AO2
KCZT 221935Z AUTO 00000KT 10SM OVC029 27/20 A2990 RMK AO2
KCZT 221915Z AUTO 03003KT 10SM BKN029 OVC035 27/20 A2990 RMK AO2
KCZT 221855Z AUTO 00000KT 10SM BKN025 OVC033 27/20 A2991 RMK AO2
KCZT 221835Z AUTO 00000KT 10SM BKN025 BKN030 27/21 A2991 RMK AO2
KCZT 221815Z AUTO 00000KT 10SM SCT023 27/20 A2992 RMK AO2
KCZT 221755Z AUTO 14004KT 10SM SCT021 26/21 A2993 RMK AO2
KCZT 221735Z AUTO 10004KT 10SM CLR 25/20 A2994 RMK AO2 LTG DSNT E
KCZT 221715Z AUTO 10004KT 10SM SCT016 SCT060 25/20 A2995 RMK AO2
KCZT 221655Z AUTO 11006KT 10SM SCT016 BKN060 25/20 A2995 RMK AO2
KCZT 221635Z AUTO 08004KT 10SM SCT014 BKN060 23/20 A2996 RMK AO2
KCZT 221615Z AUTO 05005KT 10SM SCT013 SCT050 23/20 A2996 RMK AO2
KCZT 221555Z AUTO 05004KT 10SM SCT011 BKN050 22/19 A2997 RMK AO2
KCZT 221535Z AUTO 09006KT 10SM OVC011 21/19 A2998 RMK AO2
KCZT 221515Z AUTO 09006KT 10SM OVC009 21/19 A2998 RMK AO2
KCZT 221455Z AUTO 06004KT 10SM OVC007 20/19 A2998 RMK AO2
KCZT 221435Z AUTO 06004KT 7SM OVC007 20/19 A2998 RMK AO2
KCZT 221415Z AUTO 05005KT 7SM OVC005 20/19 A2997 RMK AO2
KCZT 221355Z AUTO 06006KT 5SM BR OVC005 19/19 A2997 RMK AO2
KCZT 221335Z AUTO 00000KT 5SM BR OVC005 19/19 A2997 RMK AO2
KCZT 221315Z AUTO 07004KT 5SM BR OVC005 19/19 A2997 RMK AO2
KCZT 221255Z AUTO 06004KT 3SM BR OVC007 18/18 A2997 RMK AO2
KCZT 221235Z AUTO 06003KT 7SM OVC007 18/18 A2997 RMK AO2
KCZT 221215Z AUTO 05003KT 7SM OVC007 18/18 A2997 RMK AO2
KCZT 221155Z AUTO 04003KT 10SM OVC007 18/18 A2997 RMK AO2
KCZT 221135Z AUTO 03003KT 10SM OVC007 18/18 A2997 RMK AO2
KCZT 221115Z AUTO 03003KT 10SM OVC007 18/18 A2997 RMK AO2
KCZT 221055Z AUTO 04003KT 10SM SCT007 BKN010 OVC022 18/18 A2997 RMK AO2
KCZT 221035Z AUTO 04003KT 10SM SCT010 OVC022 18/18 A2997 RMK AO2
KCZT 221015Z AUTO 03003KT 10SM BKN008 OVC022 18/18 A2997 RMK AO2
KCZT 220955Z AUTO 02003KT 10SM BKN003 OVC008 18/18 A2998 RMK AO2
KCZT 220935Z AUTO 02005KT 10SM OVC003 18/18 A2997 RMK AO2 LTG DSNT E
KCZT 220915Z AUTO 36004KT 10SM OVC005 18/18 A2999 RMK AO2
KCZT 220855Z AUTO 34004KT 10SM OVC007 18/18 A2998 RMK AO2
KCZT 220835Z AUTO 00000KT 10SM BKN009 OVC024 18/18 A2999 RMK AO2
KCZT 220815Z AUTO 00000KT 10SM SCT009 OVC024 18/18 A2999 RMK AO2 LTG DSNT E
KCZT 220755Z AUTO 00000KT 10SM BKN024 OVC040 18/18 A3000 RMK AO2 LTG DSNT E
KCZT 220735Z AUTO 00000KT 10SM BKN024 OVC060 18/18 A3002 RMK AO2 LTG DSNT NE
KCZT 220715Z AUTO 00000KT 10SM SCT024 BKN028 OVC060 18/18 A3002 RMK AO2 LTG DSNT NE
KCZT 220655Z AUTO 14004KT 10SM SCT030 BKN049 OVC090 18/18 A3001 RMK AO2
KCZT 220635Z AUTO 14004KT 10SM SCT033 BKN065 OVC080 17/17 A3001 RMK AO2 LTG DSNT NE AND E
KCZT 220615Z AUTO 12005KT 10SM SCT030 BKN036 OVC090 17/17 A3001 RMK AO2 LTG DSNT NE
KCZT 220555Z AUTO 10006KT 10SM BKN026 OVC031 17/17 A3002 RMK AO2 LTG DSNT NE
KCZT 220535Z AUTO 06007KT 10SM -RA OVC024 17/17 A3003 RMK AO2 LTG DSNT N
KCZT 220515Z AUTO 05006KT 10SM SCT007 OVC024 18/18 A3003 RMK AO2
KCZT 220455Z AUTO 02004KT 10SM DZ SCT007 SCT020 OVC024 18/18 A3004 RMK AO2 P0009
KCZT 220435Z AUTO 03006KT 5SM -RA SCT007 OVC018 18/18 A3004 RMK AO2 LTG DSNT N AND NE P0008
KCZT 220415Z AUTO 36004KT 10SM -RA BKN007 OVC013 18/18 A3006 RMK AO2 LTG DSNT N P0001
KCZT 220355Z AUTO 36005KT 10SM -RA BKN011 OVC032 19/18 A3006 RMK AO2 LTG DSNT NW
KCZT 220335Z AUTO 05003KT 10SM SCT013 OVC032 19/18 A3003 RMK AO2 LTG DSNT NW
KCZT 220315Z AUTO 05005KT 10SM 19/18 A3002 RMK AO2
KCZT 220255Z AUTO 07006KT 10SM 19/18 A3001 RMK AO2
KCZT 220235Z AUTO 06005KT 10SM 19/19 A3001 RMK AO2
KCZT 220215Z AUTO 05004KT 10SM 19/19 A3000 RMK AO2
KCZT 220155Z AUTO 04005KT 10SM 19/19 A3000 RMK AO2
KCZT 220135Z AUTO 03007KT 10SM 19/19 A2999 RMK AO2 LTG DSNT E AND SE
KCZT 220115Z AUTO 04008KT 10SM BKN011 BKN034 19/19 A2998 RMK AO2 LTG DSNT NE AND SE
KCZT 220055Z AUTO 05011G17KT 10SM VCTS SCT009 19/19 A2995 RMK AO2 LTG DSNT N THRU SE P0002
KCZT 220035Z AUTO 05012G24KT 10SM SCT009 SCT031 19/19 A2993 RMK AO2 LTG DSNT N THRU SE P0002
KCZT 220015Z AUTO 04013G22KT 7SM -VCTSRA SCT009 BKN036 OVC080 19/19 A2995 RMK AO2 LTG DSNT ALQS P0002
KCZT 212355Z AUTO 04012G28KT 3SM -TSRA SCT009 BKN042 OVC080 20/20 A2995 RMK AO2 LTG DSNT ALQS P0022
KCZT 212335Z AUTO 02016G24KT 4SM +TSRA BKN009 BKN016 OVC028 20/20 A2997 RMK AO2 LTG DSNT ALQS P0012
KCZT 212315Z AUTO 03009G14KT 5SM TSRA SCT009 BKN013 OVC021 21/21 A2996 RMK AO2 LTG DSNT ALQS P0003
KCZT 212255Z AUTO 05013G18KT 3SM +TSRA OVC016 21/21 A2992 RMK AO2 LTG DSNT ALQS P0010
KCZT 212235Z AUTO 04007KT 5SM VCTSRA OVC014 21/21 A2994 RMK AO2 LTG DSNT ALQS P0002
KCZT 212215Z AUTO 02006KT 7SM TS OVC012 22/21 A2993 RMK AO2 LTG DSNT S THRU NW
KCZT 212155Z AUTO 03008KT 7SM BKN010 22/22 A2990 RMK AO2 LTG DSNT SE THRU NW
KCZT 212135Z AUTO 05009G14KT 5SM -RA SCT010 22/22 A2987 RMK AO2 LTG DSNT ALQS
KCZT 212115Z AUTO 10009G16KT 5SM -RA SCT030 SCT040 SCT050 22/22 A2989 RMK AO2 LTG DSNT E SE AND W
KCZT 212055Z AUTO 10016G24KT 4SM -VCTSRA SCT033 SCT075 OVC090 22/22 A2985 RMK AO2 LTG DSNT ALQS P0006
KCZT 212035Z AUTO 08013G17KT 4SM -TSRA SCT042 SCT070 OVC100 22/22 A2990 RMK AO2 LTG DSNT ALQS P0004
KCZT 212015Z AUTO 04011KT 4SM TSRA SCT070 BKN090 OVC110 23/23 A2992 RMK AO2 LTG DSNT S THRU W P0002
KCZT 211955Z AUTO 07007KT 7SM -TSRA BKN023 BKN044 OVC110 23/23 A2995 RMK AO2 LTG DSNT ALQS P0002
KCZT 211935Z AUTO 11007KT 10SM -VCTSRA BKN024 OVC030 23/23 A2994 RMK AO2 LTG DSNT ALQS P0001
KCZT 211915Z AUTO 12008G18KT 7SM -TSRA BKN024 BKN050 BKN060 23/23 A2994 RMK AO2 LTG DSNT ALQS P0001
KCZT 211855Z AUTO 08008KT 10SM -TSRA BKN024 BKN043 OVC085 24/22 A2995 RMK AO2 LTG DSNT ALQS
KCZT 211835Z AUTO 07004KT 10SM -TSRA SCT022 BKN027 OVC037 25/22 A2997 RMK AO2 LTG DSNT SE THRU NW
KCZT 211815Z AUTO 07007KT 10SM -VCTSRA SCT018 SCT037 BKN044 25/22 A2997 RMK AO2 LTG DSNT SW THRU N
KCZT 211755Z AUTO 08007KT 10SM SCT018 BKN085 25/22 A2997 RMK AO2 LTG DSNT ALQS
KCZT 211735Z AUTO 09009G14KT 10SM BKN018 BKN023 OVC085 25/22 A2997 RMK AO2 LTG DSNT SW AND NW
KCZT 211715Z AUTO 09004G16KT 10SM BKN020 BKN025 BKN095 26/22 A2997 RMK AO2 LTG DSNT SW AND W


Page loaded:  05:07 UTC  |   10:07 PM Pacific  |   11:07 PM Mountain  |   12:07 AM Central  |   01:07 AM Eastern

 

ADVISORIES

FORECASTS

FORECASTS

OBSERVATIONS

USER TOOLS

ABOUT US